createdAt,value
2023-01-05T00:01:08.163Z,7.56
2023-01-05T00:03:35.744Z,7.61
2023-01-05T00:06:11.097Z,7.64
2023-01-05T00:08:38.158Z,7.67
2023-01-05T00:11:29.215Z,7.60
2023-01-05T00:14:14.489Z,7.63
2023-01-05T00:16:59.385Z,7.70
2023-01-05T00:19:44.645Z,7.73
2023-01-05T00:22:31.695Z,7.74
2023-01-05T00:25:19.577Z,7.76
2023-01-05T00:27:48.280Z,7.80
2023-01-05T00:30:17.166Z,7.79
2023-01-05T00:32:43.970Z,7.77
2023-01-05T00:35:12.149Z,7.79
2023-01-05T00:37:39.459Z,7.81
2023-01-05T00:40:11.817Z,7.85
2023-01-05T00:42:38.519Z,7.76
2023-01-05T00:45:08.491Z,7.66
2023-01-05T00:47:35.019Z,7.67
2023-01-05T00:50:01.740Z,7.56
2023-01-05T00:52:28.535Z,7.54
2023-01-05T00:54:55.107Z,7.55
2023-01-05T00:57:21.703Z,7.58
2023-01-05T00:59:48.290Z,7.62
2023-01-05T01:02:14.995Z,7.65
2023-01-05T01:04:41.754Z,7.61
2023-01-05T01:07:08.630Z,7.63
2023-01-05T01:09:35.418Z,7.59
2023-01-05T01:12:02.391Z,7.60
2023-01-05T01:14:28.987Z,7.67
2023-01-05T01:16:55.700Z,7.66
2023-01-05T01:19:24.843Z,7.67
2023-01-05T01:21:52.065Z,7.68
2023-01-05T01:24:25.749Z,7.66
2023-01-05T01:26:52.622Z,7.64
2023-01-05T01:29:20.037Z,7.62
2023-01-05T01:31:51.640Z,7.71
2023-01-05T01:34:18.241Z,7.72
2023-01-05T01:36:44.999Z,7.60
2023-01-05T01:39:12.502Z,7.68
2023-01-05T01:41:40.013Z,7.64
2023-01-05T01:44:44.226Z,7.71
2023-01-05T01:47:17.319Z,7.71
2023-01-05T01:49:44.869Z,7.51
2023-01-05T01:52:12.323Z,7.54
2023-01-05T01:54:39.355Z,7.67
2023-01-05T01:57:06.219Z,7.66
2023-01-05T01:59:32.877Z,7.71
2023-01-05T02:02:01.657Z,7.73
2023-01-05T02:04:32.227Z,7.74
2023-01-05T02:06:59.741Z,7.78
2023-01-05T02:09:26.556Z,7.78
2023-01-05T02:12:11.632Z,7.80
2023-01-05T02:14:47.142Z,7.83
2023-01-05T02:17:25.955Z,7.77
2023-01-05T02:20:36.940Z,7.81
2023-01-05T02:23:06.442Z,7.79
2023-01-05T02:25:57.045Z,7.83
2023-01-05T02:29:09.796Z,7.84
2023-01-05T02:32:10.669Z,7.84
2023-01-05T02:34:52.432Z,7.85
2023-01-05T02:37:35.726Z,7.88
2023-01-05T02:40:21.121Z,7.94
2023-01-05T02:42:51.525Z,7.86
2023-01-05T02:45:18.163Z,7.91
2023-01-05T02:47:45.517Z,7.90
2023-01-05T02:50:19.523Z,7.74
2023-01-05T02:53:00.508Z,7.79
2023-01-05T02:55:46.191Z,7.83
2023-01-05T02:58:36.194Z,7.86
2023-01-05T03:01:09.782Z,7.79
2023-01-05T03:03:48.880Z,7.84
2023-01-05T03:06:19.555Z,8.00
2023-01-05T03:08:56.631Z,8.01
2023-01-05T03:11:49.875Z,7.88
2023-01-05T03:14:31.208Z,7.94
2023-01-05T03:17:01.210Z,7.94
2023-01-05T03:19:41.762Z,7.85
2023-01-05T03:22:49.448Z,7.84
2023-01-05T03:25:38.465Z,7.94
2023-01-05T03:28:27.449Z,7.93
2023-01-05T03:31:26.016Z,7.95
2023-01-05T03:35:09.023Z,7.98
2023-01-05T03:38:18.598Z,7.96
2023-01-05T03:40:47.274Z,7.98
2023-01-05T03:43:14.387Z,8.01
2023-01-05T03:45:46.721Z,8.03
2023-01-05T03:48:13.251Z,8.08
2023-01-05T03:50:39.835Z,8.03
2023-01-05T03:53:07.954Z,8.01
2023-01-05T03:55:34.630Z,8.00
2023-01-05T03:58:01.090Z,8.01
2023-01-05T04:00:27.720Z,8.02
2023-01-05T04:02:54.482Z,8.02
2023-01-05T04:05:21.305Z,8.03
2023-01-05T04:07:48.275Z,8.00
2023-01-05T04:10:15.175Z,8.03
2023-01-05T04:12:41.821Z,7.94
2023-01-05T04:15:08.982Z,8.05
2023-01-05T04:17:35.502Z,8.00
2023-01-05T04:20:02.053Z,8.02
2023-01-05T04:22:28.645Z,8.02
2023-01-05T04:24:55.152Z,8.06
2023-01-05T04:27:21.813Z,8.04
2023-01-05T04:29:48.836Z,7.91
2023-01-05T04:32:15.573Z,7.90
2023-01-05T04:34:42.079Z,8.01
2023-01-05T04:37:08.616Z,8.04
2023-01-05T04:39:35.205Z,8.07
2023-01-05T04:42:01.788Z,7.92
2023-01-05T04:44:28.360Z,7.94
2023-01-05T04:46:54.934Z,8.01
2023-01-05T04:49:21.478Z,7.99
2023-01-05T04:51:48.029Z,8.05
2023-01-05T04:54:14.667Z,8.01
2023-01-05T04:56:41.194Z,8.04
2023-01-05T04:59:07.717Z,8.05
2023-01-05T05:01:34.338Z,7.96
2023-01-05T05:04:00.965Z,7.91
2023-01-05T05:06:27.539Z,8.02
2023-01-05T05:08:54.086Z,8.01
2023-01-05T05:11:21.512Z,8.00
2023-01-05T05:13:48.087Z,8.05
2023-01-05T05:16:14.690Z,8.04
2023-01-05T05:18:41.241Z,7.98
2023-01-05T05:21:07.883Z,8.06
2023-01-05T05:23:34.539Z,8.06
2023-01-05T05:26:01.143Z,8.03
2023-01-05T05:28:30.372Z,8.06
2023-01-05T05:30:57.427Z,8.08
2023-01-05T05:33:24.836Z,8.07
2023-01-05T05:35:51.431Z,8.09
2023-01-05T05:38:18.126Z,8.17
2023-01-05T05:40:44.752Z,8.18
2023-01-05T05:43:11.290Z,8.14
2023-01-05T05:45:37.737Z,8.14
2023-01-05T05:48:05.675Z,8.10
2023-01-05T05:50:32.971Z,8.11
2023-01-05T05:52:59.962Z,8.09
2023-01-05T05:55:26.590Z,8.09
2023-01-05T05:57:53.368Z,8.08
2023-01-05T06:00:19.957Z,8.11
2023-01-05T06:02:46.680Z,8.00
2023-01-05T06:05:13.397Z,8.10
2023-01-05T06:07:39.927Z,8.15
2023-01-05T06:10:07.278Z,8.14
2023-01-05T06:12:34.008Z,8.23
2023-01-05T06:15:00.577Z,8.19
2023-01-05T06:17:27.089Z,8.17
2023-01-05T06:19:53.670Z,8.15
2023-01-05T06:22:20.178Z,8.20
2023-01-05T06:24:46.764Z,8.17
2023-01-05T06:27:13.332Z,8.19
2023-01-05T06:29:39.870Z,8.25
2023-01-05T06:32:06.377Z,8.29
2023-01-05T06:34:33.658Z,8.21
2023-01-05T06:37:02.446Z,8.22
2023-01-05T06:39:29.238Z,8.20
2023-01-05T06:41:55.957Z,8.24
2023-01-05T06:44:22.493Z,8.29
2023-01-05T06:46:49.056Z,8.16
2023-01-05T06:49:15.691Z,8.13
2023-01-05T06:51:42.342Z,8.15
2023-01-05T06:54:09.028Z,8.15
2023-01-05T06:56:35.743Z,8.29
2023-01-05T06:59:02.372Z,8.10
2023-01-05T07:01:29.085Z,8.18
2023-01-05T07:03:55.913Z,8.19
2023-01-05T07:06:22.529Z,8.23
2023-01-05T07:08:49.302Z,8.30
2023-01-05T07:11:15.840Z,8.37
2023-01-05T07:13:42.432Z,8.31
2023-01-05T07:16:09.042Z,8.29
2023-01-05T07:18:35.578Z,8.28
2023-01-05T07:21:02.119Z,8.28
2023-01-05T07:23:32.145Z,8.31
2023-01-05T07:26:01.952Z,8.34
2023-01-05T07:28:28.733Z,8.31
2023-01-05T07:30:55.450Z,8.32
2023-01-05T07:33:22.059Z,8.37
2023-01-05T07:35:48.646Z,8.34
2023-01-05T07:38:15.262Z,8.38
2023-01-05T07:40:41.777Z,8.38
2023-01-05T07:43:08.377Z,8.37
2023-01-05T07:45:35.023Z,8.38
2023-01-05T07:48:02.680Z,8.42
2023-01-05T07:50:30.126Z,8.43
2023-01-05T07:52:58.943Z,8.46
2023-01-05T07:55:25.670Z,8.50
2023-01-05T07:57:52.242Z,8.51
2023-01-05T08:00:19.038Z,8.53
2023-01-05T08:02:46.353Z,8.53
2023-01-05T08:05:13.008Z,8.57
2023-01-05T08:07:39.620Z,8.57
2023-01-05T08:10:25.312Z,8.56
2023-01-05T08:13:10.759Z,8.87
2023-01-05T08:15:37.303Z,8.79
2023-01-05T08:18:04.023Z,8.78
2023-01-05T08:20:30.863Z,8.80
2023-01-05T08:22:57.901Z,8.70
2023-01-05T08:25:24.749Z,8.79
2023-01-05T08:27:51.271Z,8.83
2023-01-05T08:30:17.929Z,8.90
2023-01-05T08:32:44.595Z,8.92
2023-01-05T08:35:11.443Z,8.96
2023-01-05T08:37:37.993Z,8.97
2023-01-05T08:40:05.068Z,8.97
2023-01-05T08:42:31.876Z,8.96
2023-01-05T08:44:58.932Z,9.01
2023-01-05T08:47:28.372Z,9.02
2023-01-05T08:49:55.438Z,9.06
2023-01-05T08:52:23.273Z,9.04
2023-01-05T08:54:50.464Z,9.14
2023-01-05T08:57:17.218Z,9.20
2023-01-05T08:59:43.761Z,9.32
2023-01-05T09:02:12.432Z,9.35
2023-01-05T09:04:39.084Z,9.28
2023-01-05T09:07:05.720Z,9.42
2023-01-05T09:09:32.217Z,9.43
2023-01-05T09:11:58.849Z,9.41
2023-01-05T09:14:25.353Z,9.50
2023-01-05T09:17:08.271Z,9.62
2023-01-05T09:19:36.351Z,9.69
2023-01-05T09:22:03.195Z,9.76
2023-01-05T09:24:29.954Z,9.74
2023-01-05T09:26:56.801Z,9.77
2023-01-05T09:29:23.467Z,9.79
2023-01-05T09:31:50.093Z,9.91
2023-01-05T09:34:19.154Z,9.91
2023-01-05T09:36:46.203Z,9.88
2023-01-05T09:39:12.788Z,9.88
2023-01-05T09:41:47.372Z,9.80
2023-01-05T09:44:22.938Z,9.71
2023-01-05T09:46:51.348Z,9.78
2023-01-05T09:49:23.099Z,9.72
2023-01-05T09:51:54.818Z,9.74
2023-01-05T09:54:24.773Z,9.82
2023-01-05T09:57:09.062Z,9.80
2023-01-05T09:59:44.423Z,9.82
2023-01-05T10:02:33.871Z,9.96
2023-01-05T10:05:02.478Z,9.95
2023-01-05T10:07:40.588Z,10.03
2023-01-05T10:10:33.222Z,10.05
2023-01-05T10:13:03.105Z,10.20
2023-01-05T10:15:52.785Z,10.30
2023-01-05T10:18:24.387Z,10.40
2023-01-05T10:21:45.468Z,10.54
2023-01-05T10:24:31.412Z,10.56
2023-01-05T10:27:24.807Z,10.62
2023-01-05T10:30:16.315Z,10.56
2023-01-05T10:33:25.968Z,10.55
2023-01-05T10:36:01.001Z,10.44
2023-01-05T10:38:35.151Z,10.59
2023-01-05T10:41:32.610Z,10.56
2023-01-05T10:44:25.036Z,10.62
2023-01-05T10:46:52.851Z,10.61
2023-01-05T10:49:26.130Z,10.68
2023-01-05T10:51:56.530Z,10.64
2023-01-05T10:54:36.600Z,10.77
2023-01-05T10:57:39.477Z,10.83
2023-01-05T11:00:15.435Z,10.93
2023-01-05T11:03:01.534Z,10.96
2023-01-05T11:05:33.561Z,10.84
2023-01-05T11:08:06.537Z,10.81
2023-01-05T11:10:48.100Z,10.57
2023-01-05T11:13:29.889Z,10.54
2023-01-05T11:16:02.644Z,10.55
2023-01-05T11:18:36.986Z,10.52
2023-01-05T11:21:23.881Z,10.59
2023-01-05T11:23:53.508Z,10.66
2023-01-05T11:26:19.969Z,10.71
2023-01-05T11:29:08.117Z,10.80
2023-01-05T11:31:57.905Z,10.99
2023-01-05T11:34:37.798Z,11.07
2023-01-05T11:37:08.816Z,11.12
2023-01-05T11:39:47.376Z,11.18
2023-01-05T11:42:35.836Z,11.24
2023-01-05T11:45:04.602Z,11.37
2023-01-05T11:47:43.893Z,11.46
2023-01-05T11:50:14.149Z,11.50
2023-01-05T11:52:47.271Z,11.50
2023-01-05T11:55:19.973Z,11.61
2023-01-05T11:57:48.189Z,11.60
2023-01-05T12:00:37.575Z,11.78
2023-01-05T12:03:36.551Z,11.68
2023-01-05T12:06:30.083Z,11.82
2023-01-05T12:09:05.908Z,11.89
2023-01-05T12:11:58.352Z,11.95
2023-01-05T12:14:53.446Z,11.90
2023-01-05T12:17:43.313Z,12.05
2023-01-05T12:20:34.939Z,12.14
2023-01-05T12:23:19.951Z,12.45
2023-01-05T12:26:04.398Z,12.38
2023-01-05T12:28:43.093Z,12.29
2023-01-05T12:34:15.281Z,12.26
2023-01-05T12:37:36.075Z,12.40
2023-01-05T12:40:15.751Z,12.62
2023-01-05T12:43:03.391Z,12.50
2023-01-05T12:45:39.185Z,12.61
2023-01-05T12:48:19.055Z,12.66
2023-01-05T12:50:52.585Z,12.69
2023-01-05T12:53:40.801Z,12.45
2023-01-05T12:56:23.233Z,12.48
2023-01-05T12:59:14.788Z,12.39
2023-01-05T13:01:50.166Z,12.37
2023-01-05T13:04:38.937Z,12.36
2023-01-05T13:07:18.134Z,12.33
2023-01-05T13:09:52.708Z,12.42
2023-01-05T13:12:19.433Z,12.38
2023-01-05T13:15:15.851Z,12.43
2023-01-05T13:17:54.886Z,12.30
2023-01-05T13:20:42.471Z,12.47
2023-01-05T13:23:19.858Z,12.60
2023-01-05T13:25:58.475Z,12.63
2023-01-05T13:28:28.418Z,12.63
2023-01-05T13:31:21.924Z,12.77
2023-01-05T13:34:16.996Z,12.73
2023-01-05T13:37:24.234Z,12.60
2023-01-05T13:40:00.530Z,12.43
2023-01-05T13:43:01.444Z,12.34
2023-01-05T13:45:33.928Z,12.40
2023-01-05T13:48:20.156Z,12.51
2023-01-05T13:51:10.843Z,12.54
2023-01-05T13:53:41.605Z,12.53
2023-01-05T13:56:22.152Z,12.63
2023-01-05T13:58:53.115Z,12.54
2023-01-05T14:01:51.686Z,12.54
2023-01-05T14:04:23.169Z,12.47
2023-01-05T14:06:54.224Z,12.46
2023-01-05T14:09:35.845Z,12.46
2023-01-05T14:12:08.502Z,12.45
2023-01-05T14:15:01.939Z,12.59
2023-01-05T14:17:53.150Z,12.74
2023-01-05T14:20:31.659Z,12.57
2023-01-05T14:22:58.596Z,12.56
2023-01-05T14:25:46.224Z,12.74
2023-01-05T14:28:30.819Z,12.60
2023-01-05T14:31:15.488Z,12.45
2023-01-05T14:34:15.415Z,12.43
2023-01-05T14:36:57.089Z,12.54
2023-01-05T14:39:28.977Z,12.42
2023-01-05T14:42:06.610Z,12.36
2023-01-05T14:44:43.074Z,12.46
2023-01-05T14:47:11.123Z,12.44
2023-01-05T14:49:54.635Z,12.40
2023-01-05T14:52:54.114Z,12.41
2023-01-05T14:55:38.761Z,12.39
2023-01-05T14:58:11.841Z,12.32
2023-01-05T15:00:50.236Z,12.35
2023-01-05T15:03:35.651Z,12.27
2023-01-05T15:06:13.182Z,12.32
2023-01-05T15:09:09.121Z,12.36
2023-01-05T15:11:43.811Z,12.37
2023-01-05T15:14:32.077Z,12.26
2023-01-05T15:17:23.951Z,12.28
2023-01-05T15:20:14.342Z,12.17
2023-01-05T15:22:59.252Z,12.18
2023-01-05T15:26:02.824Z,12.18
2023-01-05T15:28:51.170Z,12.14
2023-01-05T15:31:30.495Z,12.12
2023-01-05T15:34:15.917Z,12.24
2023-01-05T15:36:51.888Z,12.20
2023-01-05T15:39:27.993Z,12.26
2023-01-05T15:41:58.070Z,12.20
2023-01-05T15:44:30.092Z,12.26
2023-01-05T15:46:56.946Z,12.22
2023-01-05T15:49:28.903Z,12.21
2023-01-05T15:51:56.237Z,12.16
2023-01-05T15:54:29.034Z,12.19
2023-01-05T15:56:56.361Z,12.17
2023-01-05T15:59:38.819Z,12.16
2023-01-05T16:02:37.942Z,12.07
2023-01-05T16:05:18.482Z,12.04
2023-01-05T16:07:53.293Z,12.02
2023-01-05T16:10:24.392Z,12.02
2023-01-05T16:12:56.513Z,12.02
2023-01-05T16:15:25.185Z,12.02
2023-01-05T16:17:55.581Z,12.03
2023-01-05T16:20:24.682Z,12.03
2023-01-05T16:23:08.384Z,11.98
2023-01-05T16:25:50.770Z,12.01
2023-01-05T16:28:20.229Z,11.98
2023-01-05T16:30:48.886Z,11.96
2023-01-05T16:33:40.271Z,11.97
2023-01-05T16:36:10.445Z,11.94
2023-01-05T16:38:37.075Z,11.92
2023-01-05T16:41:23.769Z,11.91
2023-01-05T16:44:00.175Z,11.85
2023-01-05T16:46:36.154Z,11.85
2023-01-05T16:49:05.785Z,11.85
2023-01-05T16:51:32.269Z,11.77
2023-01-05T16:54:10.699Z,11.82
2023-01-05T16:56:37.223Z,11.75
2023-01-05T16:59:25.042Z,11.80
2023-01-05T17:01:51.745Z,11.84
2023-01-05T17:04:18.434Z,11.81
2023-01-05T17:06:47.743Z,11.81
2023-01-05T17:09:23.410Z,11.94
2023-01-05T17:11:49.958Z,11.91
2023-01-05T17:14:18.348Z,12.02
2023-01-05T17:16:45.064Z,11.88
2023-01-05T17:19:17.480Z,11.77
2023-01-05T17:21:49.919Z,11.75
2023-01-05T17:24:17.077Z,11.73
2023-01-05T17:26:45.437Z,11.75
2023-01-05T17:29:19.699Z,11.82
2023-01-05T17:31:46.300Z,11.69
2023-01-05T17:34:13.099Z,11.60
2023-01-05T17:36:40.230Z,11.60
2023-01-05T17:39:06.955Z,11.59
2023-01-05T17:41:33.708Z,11.57
2023-01-05T17:44:00.942Z,11.70
2023-01-05T17:46:31.968Z,11.62
2023-01-05T17:49:00.645Z,11.57
2023-01-05T17:51:28.435Z,11.55
2023-01-05T17:53:56.087Z,11.57
2023-01-05T17:56:22.824Z,11.59
2023-01-05T17:58:49.847Z,11.65
2023-01-05T18:01:16.913Z,11.55
2023-01-05T18:03:43.510Z,11.56
2023-01-05T18:06:10.232Z,11.56
2023-01-05T18:08:37.745Z,11.60
2023-01-05T18:11:08.119Z,11.61
2023-01-05T18:13:35.167Z,11.56
2023-01-05T18:16:07.138Z,11.55
2023-01-05T18:21:03.010Z,11.46
2023-01-05T18:23:30.297Z,11.46
2023-01-05T18:26:02.488Z,11.46
2023-01-05T18:28:28.983Z,11.43
2023-01-05T18:30:56.269Z,11.42
2023-01-05T18:33:23.172Z,11.40
2023-01-05T18:35:50.810Z,11.36
2023-01-05T18:38:20.868Z,11.35
2023-01-05T18:40:49.450Z,11.35
2023-01-05T18:43:16.395Z,11.37
2023-01-05T18:45:42.978Z,11.33
2023-01-05T18:48:09.681Z,11.37
2023-01-05T18:50:41.226Z,11.30
2023-01-05T18:53:07.785Z,11.24
2023-01-05T18:55:34.681Z,11.18
2023-01-05T18:58:01.201Z,11.04
2023-01-05T19:00:27.805Z,10.98
2023-01-05T19:02:54.370Z,10.93
2023-01-05T19:05:20.973Z,10.87
2023-01-05T19:07:53.406Z,10.75
2023-01-05T19:10:20.297Z,10.68
2023-01-05T19:12:46.898Z,10.67
2023-01-05T19:15:13.787Z,10.63
2023-01-05T19:17:40.441Z,10.55
2023-01-05T19:20:07.276Z,10.40
2023-01-05T19:22:34.897Z,10.37
2023-01-05T19:25:01.482Z,10.33
2023-01-05T19:27:28.158Z,10.29
2023-01-05T19:29:54.832Z,10.25
2023-01-05T19:32:21.445Z,10.25
2023-01-05T19:34:48.007Z,10.23
2023-01-05T19:37:14.537Z,10.14
2023-01-05T19:39:41.192Z,10.10
2023-01-05T19:42:07.873Z,10.11
2023-01-05T19:44:34.457Z,10.15
2023-01-05T19:47:00.956Z,10.09
2023-01-05T19:49:28.176Z,10.13
2023-01-05T19:51:54.999Z,10.05
2023-01-05T19:54:22.549Z,9.99
2023-01-05T19:56:49.487Z,9.92
2023-01-05T19:59:26.165Z,9.85
2023-01-05T20:01:54.863Z,9.84
2023-01-05T20:04:21.436Z,9.79
2023-01-05T20:06:47.974Z,9.83
2023-01-05T20:09:17.576Z,9.78
2023-01-05T20:11:47.663Z,9.86
2023-01-05T20:14:23.792Z,9.81
2023-01-05T20:17:00.380Z,9.85
2023-01-05T20:19:28.827Z,9.84
2023-01-05T20:21:57.082Z,9.91
2023-01-05T20:24:28.303Z,9.94
2023-01-05T20:27:00.681Z,9.87
2023-01-05T20:29:28.336Z,9.73
2023-01-05T20:32:02.179Z,9.68
2023-01-05T20:34:32.294Z,9.62
2023-01-05T20:37:00.193Z,9.58
2023-01-05T20:39:26.738Z,9.56
2023-01-05T20:41:54.095Z,9.50
2023-01-05T20:44:24.161Z,9.50
2023-01-05T20:46:53.628Z,9.47
2023-01-05T20:49:21.634Z,9.42
2023-01-05T20:51:48.377Z,9.33
2023-01-05T20:54:15.143Z,9.31
2023-01-05T20:56:43.736Z,9.27
2023-01-05T20:59:14.989Z,9.25
2023-01-05T21:01:42.082Z,9.21
2023-01-05T21:04:08.656Z,9.20
2023-01-05T21:06:35.663Z,9.18
2023-01-05T21:09:04.023Z,9.17
2023-01-05T21:11:30.655Z,9.17
2023-01-05T21:13:58.299Z,9.17
2023-01-05T21:16:30.359Z,9.18
2023-01-05T21:18:59.250Z,9.18
2023-01-05T21:21:28.936Z,9.13
2023-01-05T21:23:56.064Z,9.14
2023-01-05T21:26:23.565Z,9.13
2023-01-05T21:28:52.261Z,9.09
2023-01-05T21:31:22.630Z,9.09
2023-01-05T21:33:49.617Z,9.05
2023-01-05T21:36:18.970Z,9.05
2023-01-05T21:39:01.712Z,9.05
2023-01-05T21:41:49.465Z,9.04
2023-01-05T21:44:16.262Z,9.02
2023-01-05T21:46:43.516Z,9.06
2023-01-05T21:49:12.095Z,8.99
2023-01-05T21:51:57.436Z,8.95
2023-01-05T21:54:43.312Z,8.93
2023-01-05T21:57:10.962Z,8.90
2023-01-05T21:59:37.620Z,8.86
2023-01-05T22:02:04.219Z,8.83
2023-01-05T22:04:30.773Z,8.80
2023-01-05T22:06:57.451Z,8.79
2023-01-05T22:09:24.169Z,8.77
2023-01-05T22:11:50.758Z,8.85
2023-01-05T22:14:17.378Z,8.77
2023-01-05T22:16:44.622Z,8.73
2023-01-05T22:19:11.305Z,8.71
2023-01-05T22:21:38.262Z,8.75
2023-01-05T22:24:05.994Z,8.75
2023-01-05T22:26:32.667Z,8.78
2023-01-05T22:28:59.207Z,8.75
2023-01-05T22:31:28.757Z,8.65
2023-01-05T22:33:57.948Z,8.58
2023-01-05T22:36:26.535Z,8.56
2023-01-05T22:38:54.403Z,8.48
2023-01-05T22:41:24.659Z,8.44
2023-01-05T22:43:51.558Z,8.43
2023-01-05T22:46:24.294Z,8.41
2023-01-05T22:48:53.178Z,8.35
2023-01-05T22:51:22.360Z,8.35
2023-01-05T22:53:50.030Z,8.33
2023-01-05T22:56:17.974Z,8.28
2023-01-05T22:58:44.722Z,8.25
2023-01-05T23:01:13.174Z,8.24
2023-01-05T23:03:40.603Z,8.24
2023-01-05T23:06:07.564Z,8.23
2023-01-05T23:08:35.733Z,8.22
2023-01-05T23:11:07.933Z,8.33
2023-01-05T23:13:35.288Z,8.23
2023-01-05T23:16:02.221Z,8.15
2023-01-05T23:18:28.862Z,8.06
2023-01-05T23:20:58.599Z,8.05
2023-01-05T23:23:25.598Z,8.04
2023-01-05T23:25:52.834Z,7.85
2023-01-05T23:28:21.957Z,7.92
2023-01-05T23:30:53.376Z,7.91
2023-01-05T23:33:22.290Z,7.87
2023-01-05T23:35:51.210Z,7.94
2023-01-05T23:38:18.322Z,7.85
2023-01-05T23:40:49.579Z,7.85
2023-01-05T23:43:19.397Z,7.83
2023-01-05T23:45:48.041Z,7.99
2023-01-05T23:48:15.920Z,8.05
2023-01-05T23:50:44.025Z,8.16
2023-01-05T23:53:11.078Z,8.06
2023-01-05T23:55:38.836Z,8.02
2023-01-05T23:58:05.872Z,8.00
